Time;durP1;ratioP1;P1;durP2;ratioP2;P2;SDS_P1;SDS_P2;PMS_P1;PMS_P2;Temp;Humidity;BMP_temperature;BMP_pressure;BME280_temperature;BME280_humidity;BME280_pressure;Samples;Min_cycle;Max_cycle;Signal;HPM_P1;HPM_P2
2021/06/15 00:01:03;;;;;;;;;;;;;;;12.58;62.85;97197.92;1729523;82;20172;-83
2021/06/15 00:03:29;;;;;;;;;;;;;;;12.59;61.78;97195.63;1709936;83;20143;-81
2021/06/15 00:05:55;;;;;;;;;;;;;;;12.60;62.17;97203.92;1715900;82;20098;-80
2021/06/15 00:08:22;;;;;;;;;;;;;;;12.59;61.66;97203.09;1715439;83;20109;-82
2021/06/15 00:10:48;;;;;;;;;;;;;;;12.61;61.60;97201.63;1723067;82;20121;-83
2021/06/15 00:13:14;;;;;;;;;;;;;;;12.61;62.48;97202.95;1732267;82;20122;-83
2021/06/15 00:15:41;;;;;;;;;;;;;;;12.61;62.39;97206.92;1745316;82;20099;-80
2021/06/15 00:18:07;;;;;;;;;;;;;;;12.62;61.88;97208.59;1747906;82;20376;-82
2021/06/15 00:20:34;;;;;;;;;;;;;;;12.60;61.65;97203.92;1726575;82;20097;-81
2021/06/15 00:23:00;;;;;;;;;;;;;;;12.59;61.89;97208.84;1726330;82;20119;-82
2021/06/15 00:25:26;;;;;;;;;;;;;;;12.58;61.26;97209.81;1747834;82;20135;-82
2021/06/15 00:27:52;;;;;;;;;;;;;;;12.55;61.97;97207.45;1718491;82;20399;-82
2021/06/15 00:30:20;;;;;;;;;;;;;;;12.55;61.92;97200.34;1715896;82;20097;-82
2021/06/15 00:32:50;;;;;;;;;;;;;;;12.53;60.81;97195.67;1715976;82;20102;-81
2021/06/15 00:35:14;;;;;;;;;;;;;;;12.49;61.75;97194.28;1746021;82;20420;-81
2021/06/15 00:37:40;;;;;;;;;;;;;;;12.46;61.76;97194.07;1743188;82;20104;-82
2021/06/15 00:40:07;;;;;;;;;;;;;;;12.45;61.52;97198.15;1726732;82;20110;-81
2021/06/15 00:42:33;;;;;;;;;;;;;;;12.44;61.98;97192.03;1715265;82;20410;-84
2021/06/15 00:44:59;;;;;;;;;;;;;;;12.45;62.26;97195.50;1715332;83;20106;-82
2021/06/15 00:47:26;;;;;;;;;;;;;;;12.46;61.67;97199.36;1731571;82;20411;-83
2021/06/15 00:49:54;;;;;;;;;;;;;;;12.48;61.78;97195.25;1706570;82;20172;-82
2021/06/15 00:52:21;;;;;;;;;;;;;;;12.51;61.97;97191.03;1717511;82;20097;-81
2021/06/15 00:54:48;;;;;;;;;;;;;;;12.52;61.94;97189.20;1716111;82;20113;-79
2021/06/15 00:57:17;;;;;;;;;;;;;;;12.55;62.28;97188.95;1729440;82;20091;-82
2021/06/15 00:59:43;;;;;;;;;;;;;;;12.58;61.59;97192.62;1745235;82;20092;-82
2021/06/15 01:02:10;;;;;;;;;;;;;;;12.58;61.91;97188.20;1719790;82;20130;-81
2021/06/15 01:04:38;;;;;;;;;;;;;;;12.60;61.42;97189.37;1729691;82;20120;-83
2021/06/15 01:07:22;;;;;;;;;;;;;;;12.61;61.32;97178.69;1726713;83;20132;-80
2021/06/15 01:10:13;;;;;;;;;;;;;;;12.62;61.60;97178.19;1726947;82;20462;-81
2021/06/15 01:13:06;;;;;;;;;;;;;;;12.61;62.14;97181.80;1702267;82;20138;-83
2021/06/15 01:15:39;;;;;;;;;;;;;;;12.65;61.96;97189.33;1699188;83;20152;-83
2021/06/15 01:18:10;;;;;;;;;;;;;;;12.70;62.01;97192.06;1706315;83;20132;-81
2021/06/15 01:20:39;;;;;;;;;;;;;;;12.76;61.98;97188.37;1698914;83;20134;-81
2021/06/15 01:23:12;;;;;;;;;;;;;;;12.81;61.96;97188.83;1709992;83;20132;-83
2021/06/15 01:25:45;;;;;;;;;;;;;;;12.88;61.33;97180.34;1726914;81;20120;-81
2021/06/15 01:28:15;;;;;;;;;;;;;;;12.93;61.52;97184.75;1720788;83;20165;-82
2021/06/15 01:31:18;;;;;;;;;;;;;;;12.99;61.29;97188.16;1725952;83;20140;-79
2021/06/15 01:33:48;;;;;;;;;;;;;;;13.02;61.35;97187.05;1727090;83;20132;-82
2021/06/15 01:36:18;;;;;;;;;;;;;;;13.04;61.22;97189.91;1703359;83;20130;-83
2021/06/15 01:38:48;;;;;;;;;;;;;;;13.03;61.14;97176.35;1698451;83;20167;-86
2021/06/15 01:41:18;;;;;;;;;;;;;;;13.06;61.30;97180.52;1698343;83;20419;-80
2021/06/15 01:43:49;;;;;;;;;;;;;;;13.10;61.21;97175.30;1678500;85;20131;-84
2021/06/15 01:46:20;;;;;;;;;;;;;;;13.13;61.16;97177.17;1702578;83;20121;-79
2021/06/15 01:49:02;;;;;;;;;;;;;;;13.17;61.03;97172.47;1678559;84;20166;-83
2021/06/15 01:51:27;;;;;;;;;;;;;;;13.20;61.09;97174.00;1714211;83;20159;-84
2021/06/15 01:53:59;;;;;;;;;;;;;;;13.23;60.89;97175.03;1725830;83;20191;-83
2021/06/15 01:56:29;;;;;;;;;;;;;;;13.25;60.82;97177.05;1706841;83;20118;-82
2021/06/15 01:58:57;;;;;;;;;;;;;;;13.23;60.74;97171.91;1691363;83;20139;-82
2021/06/15 02:01:28;;;;;;;;;;;;;;;13.22;60.59;97172.05;1682111;84;20155;-82
2021/06/15 02:03:56;;;;;;;;;;;;;;;13.16;60.52;97166.83;1698574;82;20101;-81
2021/06/15 02:06:25;;;;;;;;;;;;;;;13.14;60.33;97172.73;1713987;83;20135;-84
2021/06/15 02:08:54;;;;;;;;;;;;;;;13.05;60.40;97177.03;1708664;83;20143;-83
2021/06/15 02:11:43;;;;;;;;;;;;;;;13.03;60.43;97184.76;1713414;83;20101;-82
2021/06/15 02:14:20;;;;;;;;;;;;;;;12.95;60.16;97185.43;1672542;84;20109;-83
2021/06/15 02:16:56;;;;;;;;;;;;;;;12.90;60.45;97188.48;1700561;83;20450;-82
2021/06/15 02:19:31;;;;;;;;;;;;;;;12.86;60.25;97183.59;1701505;83;20129;-83
2021/06/15 02:22:05;;;;;;;;;;;;;;;12.81;61.36;97186.65;1725184;83;20131;-82
2021/06/15 02:24:37;;;;;;;;;;;;;;;12.77;60.84;97185.27;1715768;83;20107;-83
2021/06/15 02:27:06;;;;;;;;;;;;;;;12.74;60.84;97181.55;1713461;83;20419;-82
2021/06/15 02:29:32;;;;;;;;;;;;;;;12.71;60.33;97176.05;1702099;84;20394;-80
2021/06/15 02:32:01;;;;;;;;;;;;;;;12.69;60.32;97171.38;1716678;83;20155;-83
2021/06/15 02:34:28;;;;;;;;;;;;;;;12.65;60.69;97166.85;1718742;82;20102;-83
2021/06/15 02:36:58;;;;;;;;;;;;;;;12.62;60.48;97174.22;1723421;83;20131;-85
2021/06/15 02:39:31;;;;;;;;;;;;;;;12.62;61.26;97172.40;1734150;83;20458;-83
2021/06/15 02:41:57;;;;;;;;;;;;;;;12.63;61.22;97170.61;1708303;83;20097;-83
2021/06/15 02:44:28;;;;;;;;;;;;;;;12.67;61.22;97177.78;1699807;85;20402;-85
2021/06/15 02:46:57;;;;;;;;;;;;;;;12.66;61.37;97175.64;1702683;83;20436;-83
2021/06/15 02:49:30;;;;;;;;;;;;;;;12.69;61.35;97174.02;1707539;83;20120;-83
2021/06/15 02:52:18;;;;;;;;;;;;;;;12.72;61.31;97160.54;1731012;82;20124;-83
2021/06/15 02:54:55;;;;;;;;;;;;;;;12.74;61.34;97155.11;1735659;82;20452;-82
2021/06/15 02:57:22;;;;;;;;;;;;;;;12.77;61.30;97158.31;1707252;83;20131;-86
2021/06/15 02:59:48;;;;;;;;;;;;;;;12.79;61.35;97155.05;1734976;82;20131;-85
2021/06/15 03:02:15;;;;;;;;;;;;;;;12.82;61.38;97156.59;1734112;82;20136;-84
2021/06/15 03:04:46;;;;;;;;;;;;;;;12.85;61.13;97163.44;1727050;81;20177;-84
2021/06/15 03:07:11;;;;;;;;;;;;;;;12.87;60.42;97174.69;1712048;83;20137;-83
2021/06/15 03:09:38;;;;;;;;;;;;;;;12.88;60.81;97184.31;1687652;84;20129;-84
2021/06/15 03:12:14;;;;;;;;;;;;;;;12.90;60.99;97187.66;1706190;83;20437;-83
2021/06/15 03:14:49;;;;;;;;;;;;;;;12.90;60.99;97191.13;1690339;84;20098;-84
2021/06/15 03:17:16;;;;;;;;;;;;;;;12.94;60.91;97196.52;1686970;85;20199;-85
2021/06/15 03:19:52;;;;;;;;;;;;;;;12.96;61.16;97205.16;1687272;85;20157;-82
2021/06/15 03:22:21;;;;;;;;;;;;;;;13.02;61.29;97203.78;1677863;84;20161;-85
2021/06/15 03:24:59;;;;;;;;;;;;;;;13.10;61.23;97201.75;1700492;84;20168;-85
2021/06/15 03:27:42;;;;;;;;;;;;;;;13.18;61.24;97198.44;1711320;83;20120;-85
2021/06/15 03:30:10;;;;;;;;;;;;;;;13.23;60.81;97201.02;1678668;84;20178;-81
2021/06/15 03:32:52;;;;;;;;;;;;;;;13.25;60.85;97195.58;1689089;84;20094;-84
2021/06/15 03:35:21;;;;;;;;;;;;;;;13.31;60.62;97189.76;1695948;84;20164;-86
2021/06/15 03:37:50;;;;;;;;;;;;;;;13.35;60.31;97203.05;1689131;84;20430;-85
2021/06/15 03:40:18;;;;;;;;;;;;;;;13.42;60.40;97209.98;1712117;84;20160;-87
2021/06/15 03:42:45;;;;;;;;;;;;;;;13.47;60.10;97210.90;1662661;85;20102;-85
2021/06/15 03:45:12;;;;;;;;;;;;;;;13.50;60.05;97212.78;1687095;84;20099;-85
2021/06/15 03:47:40;;;;;;;;;;;;;;;13.53;59.80;97205.89;1686664;85;20101;-84
2021/06/15 03:50:07;;;;;;;;;;;;;;;13.56;59.72;97202.12;1686840;85;20101;-85
2021/06/15 03:52:39;;;;;;;;;;;;;;;13.55;59.58;97201.27;1707475;84;20437;-84
2021/06/15 03:55:07;;;;;;;;;;;;;;;13.56;59.52;97202.94;1671160;84;20110;-83
2021/06/15 03:57:41;;;;;;;;;;;;;;;13.57;59.42;97197.17;1687026;84;20146;-85
2021/06/15 04:00:10;;;;;;;;;;;;;;;13.58;59.86;97192.23;1682478;84;20132;-84
2021/06/15 04:02:39;;;;;;;;;;;;;;;13.62;60.12;97197.58;1630135;87;20380;-85
2021/06/15 04:05:06;;;;;;;;;;;;;;;13.68;60.24;97202.81;1708328;83;20444;-86
2021/06/15 04:07:33;;;;;;;;;;;;;;;13.73;59.99;97204.06;1723721;83;20199;-85
2021/06/15 04:10:00;;;;;;;;;;;;;;;13.77;59.89;97211.73;1727990;82;20449;-85
2021/06/15 04:12:28;;;;;;;;;;;;;;;13.82;59.63;97215.64;1713722;83;20160;-85
2021/06/15 04:14:57;;;;;;;;;;;;;;;13.90;59.64;97214.91;1728357;82;20132;-86
2021/06/15 04:17:29;;;;;;;;;;;;;;;13.95;59.29;97211.84;1728410;82;20445;-85
2021/06/15 04:19:57;;;;;;;;;;;;;;;13.97;59.49;97216.02;1728286;83;20143;-85
2021/06/15 04:22:29;;;;;;;;;;;;;;;14.01;59.25;97219.25;1723240;82;20124;-84
2021/06/15 04:24:56;;;;;;;;;;;;;;;14.03;59.60;97221.24;1699841;83;20131;-83
2021/06/15 04:27:25;;;;;;;;;;;;;;;14.10;59.54;97228.14;1701234;83;20164;-83
2021/06/15 04:29:55;;;;;;;;;;;;;;;14.15;59.38;97222.77;1717699;83;20151;-84
2021/06/15 04:32:24;;;;;;;;;;;;;;;14.24;59.39;97214.92;1701944;82;20130;-84
2021/06/15 04:34:56;;;;;;;;;;;;;;;14.37;59.42;97215.47;1725376;83;20136;-84
2021/06/15 04:37:23;;;;;;;;;;;;;;;14.52;59.15;97215.84;1728038;83;20167;-84
2021/06/15 04:39:55;;;;;;;;;;;;;;;14.70;58.60;97209.79;1706930;83;20151;-86
2021/06/15 04:42:28;;;;;;;;;;;;;;;14.83;58.74;97210.27;1701990;82;20139;-85
2021/06/15 04:44:54;;;;;;;;;;;;;;;15.00;58.48;97211.31;1692819;85;20155;-84
2021/06/15 04:47:26;;;;;;;;;;;;;;;15.11;58.12;97209.78;1699343;83;20123;-85
2021/06/15 04:50:05;;;;;;;;;;;;;;;15.18;58.01;97208.67;1699279;84;20224;-84
2021/06/15 04:52:32;;;;;;;;;;;;;;;15.25;57.73;97207.11;1713899;83;20128;-83
2021/06/15 04:55:00;;;;;;;;;;;;;;;15.38;57.67;97212.52;1685743;83;20138;-84
2021/06/15 04:57:38;;;;;;;;;;;;;;;15.45;57.49;97217.59;1699555;83;20123;-84
2021/06/15 05:00:06;;;;;;;;;;;;;;;15.56;57.57;97215.20;1699501;83;20135;-83
2021/06/15 05:02:34;;;;;;;;;;;;;;;15.68;57.32;97207.83;1714611;83;20593;-85
2021/06/15 05:05:01;;;;;;;;;;;;;;;15.80;57.01;97211.92;1704481;83;20433;-85
2021/06/15 05:07:27;;;;;;;;;;;;;;;15.95;56.71;97212.25;1748279;82;20122;-84
2021/06/15 05:09:59;;;;;;;;;;;;;;;16.10;56.83;97215.16;1712694;83;20104;-84
2021/06/15 05:12:25;;;;;;;;;;;;;;;16.29;56.64;97205.30;1729642;82;20107;-82
2021/06/15 05:14:52;;;;;;;;;;;;;;;16.49;56.34;97201.95;1734326;82;20088;-83
2021/06/15 05:17:23;;;;;;;;;;;;;;;16.65;55.89;97201.20;1718608;82;20395;-84
2021/06/15 05:19:49;;;;;;;;;;;;;;;16.84;55.70;97198.78;1734873;82;20145;-85
2021/06/15 05:22:25;;;;;;;;;;;;;;;16.95;55.55;97177.70;1730008;83;20107;-85
2021/06/15 05:24:56;;;;;;;;;;;;;;;17.30;55.34;97199.28;1749966;81;20174;-83
2021/06/15 05:27:28;;;;;;;;;;;;;;;17.54;54.87;97205.63;1750318;81;20386;-84
2021/06/15 05:29:55;;;;;;;;;;;;;;;17.77;53.91;97202.33;1772110;81;20153;-84
2021/06/15 05:32:21;;;;;;;;;;;;;;;17.95;54.00;97206.17;1767927;80;20126;-82
2021/06/15 05:34:47;;;;;;;;;;;;;;;18.12;53.83;97206.19;1762388;81;20093;-83
2021/06/15 05:37:13;;;;;;;;;;;;;;;18.22;53.87;97200.99;1762786;80;20117;-83
2021/06/15 05:39:40;;;;;;;;;;;;;;;18.35;52.77;97211.14;1715800;83;20100;-82
2021/06/15 05:42:07;;;;;;;;;;;;;;;18.45;52.82;97214.13;1718360;81;20102;-83
2021/06/15 05:44:34;;;;;;;;;;;;;;;18.54;52.32;97220.63;1752126;82;20416;-83
2021/06/15 05:47:01;;;;;;;;;;;;;;;18.66;51.29;97218.90;1726671;81;20410;-84
2021/06/15 05:49:28;;;;;;;;;;;;;;;18.80;52.29;97224.03;1727658;83;20369;-83
2021/06/15 05:52:03;;;;;;;;;;;;;;;18.90;52.36;97221.98;1726238;82;20148;-82
2021/06/15 05:54:30;;;;;;;;;;;;;;;18.99;51.37;97219.64;1758912;81;20197;-83
2021/06/15 05:56:56;;;;;;;;;;;;;;;19.09;52.54;97217.27;1713174;83;20124;-82
2021/06/15 05:59:23;;;;;;;;;;;;;;;19.17;52.08;97219.89;1720418;83;20123;-85
2021/06/15 06:01:49;;;;;;;;;;;;;;;19.25;51.32;97217.69;1714328;83;20179;-83
2021/06/15 06:04:23;;;;;;;;;;;;;;;19.35;51.16;97216.45;1758876;81;20122;-84
2021/06/15 06:09:37;;;;;;;;;;;;;;;19.44;51.37;97216.43;1759060;80;20419;-82
2021/06/15 06:12:04;;;;;;;;;;;;;;;19.43;50.22;97217.44;1758990;81;20141;-84
2021/06/15 06:14:30;;;;;;;;;;;;;;;19.43;51.46;97226.79;1764362;80;20125;-82
2021/06/15 06:16:57;;;;;;;;;;;;;;;19.43;50.96;97218.77;1779263;80;20171;-82
2021/06/15 06:19:23;;;;;;;;;;;;;;;19.49;51.50;97218.87;1763876;80;20153;-83
2021/06/15 06:21:49;;;;;;;;;;;;;;;19.57;51.21;97221.19;1780018;80;20125;-84
2021/06/15 06:24:17;;;;;;;;;;;;;;;19.64;51.61;97216.79;1785516;80;20120;-83
2021/06/15 06:26:47;;;;;;;;;;;;;;;19.71;50.92;97217.73;1785935;80;20092;-84
2021/06/15 06:29:13;;;;;;;;;;;;;;;19.85;51.08;97219.31;1761116;80;20226;-83
2021/06/15 06:31:40;;;;;;;;;;;;;;;19.95;50.38;97219.42;1765591;80;20132;-83
2021/06/15 06:34:06;;;;;;;;;;;;;;;20.04;50.11;97224.70;1766382;80;20177;-82
2021/06/15 06:36:32;;;;;;;;;;;;;;;19.99;50.61;97221.75;1760984;80;20177;-84
2021/06/15 06:38:58;;;;;;;;;;;;;;;20.08;50.65;97214.79;1758638;81;20133;-83
2021/06/15 06:41:27;;;;;;;;;;;;;;;20.22;49.86;97211.83;1771292;80;20133;-83
2021/06/15 06:43:53;;;;;;;;;;;;;;;20.32;48.86;97220.09;1764277;80;20157;-84
2021/06/15 06:46:20;;;;;;;;;;;;;;;20.44;49.66;97221.33;1772980;80;20193;-81
2021/06/15 06:48:46;;;;;;;;;;;;;;;20.56;48.40;97219.84;1758724;80;20098;-82
2021/06/15 06:51:12;;;;;;;;;;;;;;;20.60;48.43;97215.79;1761440;80;20133;-81
2021/06/15 06:53:38;;;;;;;;;;;;;;;20.59;48.88;97226.70;1754165;82;20102;-81
2021/06/15 06:56:06;;;;;;;;;;;;;;;20.49;48.46;97224.27;1759182;80;20415;-81
2021/06/15 06:58:33;;;;;;;;;;;;;;;20.41;49.15;97229.70;1757457;80;20099;-81
2021/06/15 07:00:59;;;;;;;;;;;;;;;20.20;49.25;97233.91;1758597;80;20107;-82
2021/06/15 07:03:25;;;;;;;;;;;;;;;20.08;49.94;97227.35;1751857;80;20174;-81
2021/06/15 07:05:53;;;;;;;;;;;;;;;20.13;50.60;97226.29;1757049;80;20155;-81
2021/06/15 07:08:19;;;;;;;;;;;;;;;20.13;50.51;97234.31;1769530;80;20107;-82
2021/06/15 07:10:45;;;;;;;;;;;;;;;20.14;50.00;97227.95;1752603;80;20099;-81
2021/06/15 07:13:11;;;;;;;;;;;;;;;20.21;50.25;97223.53;1754531;80;20447;-80
2021/06/15 07:15:37;;;;;;;;;;;;;;;20.24;50.31;97221.84;1757620;80;20400;-81
2021/06/15 07:18:06;;;;;;;;;;;;;;;20.21;50.32;97220.86;1755881;80;20106;-80
2021/06/15 07:20:32;;;;;;;;;;;;;;;20.17;50.50;97218.73;1755877;80;20104;-81
2021/06/15 07:22:58;;;;;;;;;;;;;;;20.15;50.85;97220.26;1756154;80;20166;-82
2021/06/15 07:25:24;;;;;;;;;;;;;;;20.11;50.76;97227.81;1758453;80;20098;-83
2021/06/15 07:27:50;;;;;;;;;;;;;;;20.11;50.90;97226.97;1754320;80;20095;-82
2021/06/15 07:30:18;;;;;;;;;;;;;;;20.11;50.79;97223.80;1757280;80;20150;-82
2021/06/15 07:32:46;;;;;;;;;;;;;;;20.24;50.98;97210.29;1755435;80;20441;-81
2021/06/15 07:35:12;;;;;;;;;;;;;;;20.37;50.11;97207.02;1755408;82;20450;-81
2021/06/15 07:37:39;;;;;;;;;;;;;;;20.65;50.94;97202.37;1755714;80;20503;-80
2021/06/15 07:40:08;;;;;;;;;;;;;;;21.06;49.77;97207.24;1745418;80;20430;-82
2021/06/15 07:42:34;;;;;;;;;;;;;;;21.53;48.99;97199.22;1752685;80;20395;-81
2021/06/15 07:45:00;;;;;;;;;;;;;;;21.77;48.79;97204.43;1749171;80;20439;-82
2021/06/15 07:47:27;;;;;;;;;;;;;;;21.93;47.36;97195.29;1737446;82;20388;-81
2021/06/15 07:49:53;;;;;;;;;;;;;;;22.06;47.89;97200.75;1737456;82;20130;-80
2021/06/15 07:52:27;;;;;;;;;;;;;;;22.15;46.97;97200.11;1744591;80;20098;-80
2021/06/15 07:54:48;;;;;;;;;;;;;;;22.18;45.75;97204.25;1746660;82;20115;-81
2021/06/15 07:57:14;;;;;;;;;;;;;;;22.27;47.95;97207.93;1729466;82;20103;-81
2021/06/15 07:59:40;;;;;;;;;;;;;;;22.23;45.61;97208.52;1756113;80;20155;-80
2021/06/15 08:02:06;;;;;;;;;;;;;;;22.18;47.27;97204.25;1747449;80;20102;-81
2021/06/15 08:04:32;;;;;;;;;;;;;;;22.11;47.62;97202.85;1744775;82;20122;-81
2021/06/15 08:06:59;;;;;;;;;;;;;;;22.09;47.87;97203.55;1756391;80;20094;-80
2021/06/15 08:09:25;;;;;;;;;;;;;;;22.15;46.24;97192.88;1750872;82;20405;-81
2021/06/15 08:11:51;;;;;;;;;;;;;;;22.37;47.93;97183.94;1758667;80;20163;-80
2021/06/15 08:14:17;;;;;;;;;;;;;;;22.69;45.61;97181.16;1750120;80;20184;-79
2021/06/15 08:16:43;;;;;;;;;;;;;;;23.06;45.48;97187.12;1758327;81;20129;-78
2021/06/15 08:19:09;;;;;;;;;;;;;;;23.37;45.42;97184.47;1758855;80;20094;-79
2021/06/15 08:21:35;;;;;;;;;;;;;;;23.67;43.98;97190.00;1728915;80;20383;-81
2021/06/15 08:24:02;;;;;;;;;;;;;;;23.73;45.24;97182.47;1758659;80;20456;-81
2021/06/15 08:26:28;;;;;;;;;;;;;;;24.15;43.50;97185.00;1760494;80;20106;-81
2021/06/15 08:28:55;;;;;;;;;;;;;;;24.54;41.98;97187.34;1758540;80;20110;-79
2021/06/15 08:31:21;;;;;;;;;;;;;;;24.74;43.51;97189.16;1757301;80;20161;-80
2021/06/15 08:33:47;;;;;;;;;;;;;;;24.94;43.03;97189.12;1758366;81;20122;-80
2021/06/15 08:36:13;;;;;;;;;;;;;;;25.07;42.04;97192.28;1778209;80;20104;-82
2021/06/15 08:38:39;;;;;;;;;;;;;;;24.93;40.13;97190.16;1787487;80;20381;-81
2021/06/15 08:41:06;;;;;;;;;;;;;;;25.04;41.64;97198.09;1787311;79;20385;-80
2021/06/15 08:43:32;;;;;;;;;;;;;;;25.09;39.97;97200.98;1785055;80;20109;-81
2021/06/15 08:45:58;;;;;;;;;;;;;;;25.24;40.57;97198.02;1785456;80;20103;-80
2021/06/15 08:48:24;;;;;;;;;;;;;;;25.47;39.67;97202.06;1785350;80;20127;-81
2021/06/15 08:50:50;;;;;;;;;;;;;;;25.51;39.69;97205.47;1766460;80;20141;-81
2021/06/15 08:53:16;;;;;;;;;;;;;;;25.48;39.95;97201.84;1761049;80;20125;-82
2021/06/15 08:55:52;;;;;;;;;;;;;;;25.37;40.31;97206.03;1785659;80;20147;-82
2021/06/15 08:58:48;;;;;;;;;;;;;;;25.14;39.30;97199.00;1763063;80;20213;-81
2021/06/15 09:01:14;;;;;;;;;;;;;;;25.35;38.95;97200.02;1784879;80;20127;-81
2021/06/15 09:03:41;;;;;;;;;;;;;;;25.47;39.46;97193.47;1765859;80;20129;-80
2021/06/15 09:06:07;;;;;;;;;;;;;;;25.63;39.08;97193.98;1764336;80;20117;-79
2021/06/15 09:08:37;;;;;;;;;;;;;;;25.69;38.98;97194.45;1740138;80;20174;-82
2021/06/15 09:11:05;;;;;;;;;;;;;;;25.77;40.77;97198.78;1764757;80;20134;-80
2021/06/15 09:13:35;;;;;;;;;;;;;;;25.82;38.76;97191.68;1732025;80;20172;-80
2021/06/15 09:16:05;;;;;;;;;;;;;;;25.97;38.87;97183.27;1743782;80;20126;-80
2021/06/15 09:18:31;;;;;;;;;;;;;;;26.15;37.74;97189.26;1743890;80;20165;-81
2021/06/15 09:21:00;;;;;;;;;;;;;;;26.34;38.23;97182.55;1718045;82;20137;-80
2021/06/15 09:23:37;;;;;;;;;;;;;;;26.47;39.26;97194.59;1695627;85;20105;-79
2021/06/15 09:26:05;;;;;;;;;;;;;;;26.50;36.81;97186.55;1686934;85;20436;-81
2021/06/15 09:28:31;;;;;;;;;;;;;;;26.23;39.51;97178.70;1701535;83;20159;-80
2021/06/15 09:31:06;;;;;;;;;;;;;;;26.01;39.25;97182.30;1695006;85;20394;-80
2021/06/15 09:33:42;;;;;;;;;;;;;;;26.05;37.97;97175.39;1698985;83;20153;-79
2021/06/15 09:36:27;;;;;;;;;;;;;;;26.24;38.65;97182.22;1696173;83;20121;-80
2021/06/15 09:38:57;;;;;;;;;;;;;;;26.24;38.10;97184.92;1698611;83;20103;-80
2021/06/15 09:41:36;;;;;;;;;;;;;;;26.32;39.13;97179.23;1695261;83;20174;-79
2021/06/15 09:44:26;;;;;;;;;;;;;;;26.19;38.20;97176.13;1694786;84;20191;-78
2021/06/15 09:46:51;;;;;;;;;;;;;;;25.98;39.37;97174.12;1744542;82;20136;-80
2021/06/15 09:49:32;;;;;;;;;;;;;;;25.89;39.58;97179.48;1739538;82;20155;-78
2021/06/15 09:52:14;;;;;;;;;;;;;;;25.84;40.59;97181.50;1748623;80;20111;-80
2021/06/15 09:54:42;;;;;;;;;;;;;;;25.67;39.71;97179.00;1714041;83;20110;-79
2021/06/15 09:57:10;;;;;;;;;;;;;;;25.44;40.12;97175.01;1770540;80;20148;-79
2021/06/15 09:59:37;;;;;;;;;;;;;;;25.05;39.90;97182.22;1752060;80;20099;-80
2021/06/15 10:02:03;;;;;;;;;;;;;;;24.79;40.86;97182.09;1752582;80;20092;-80
2021/06/15 10:04:29;;;;;;;;;;;;;;;24.62;41.35;97176.33;1742752;80;20095;-81
2021/06/15 10:06:57;;;;;;;;;;;;;;;24.47;41.20;97170.34;1736016;80;20087;-81
2021/06/15 10:09:26;;;;;;;;;;;;;;;24.42;41.78;97170.16;1723447;82;20150;-80
2021/06/15 10:11:54;;;;;;;;;;;;;;;24.45;41.90;97169.75;1726491;82;20102;-80
2021/06/15 10:14:22;;;;;;;;;;;;;;;24.44;41.44;97167.55;1714786;82;20101;-81
2021/06/15 10:16:49;;;;;;;;;;;;;;;24.38;41.96;97163.52;1704369;82;20099;-79
2021/06/15 10:19:16;;;;;;;;;;;;;;;24.38;41.86;97172.94;1704011;84;20115;-82
2021/06/15 10:21:42;;;;;;;;;;;;;;;24.30;41.95;97166.75;1706776;82;20490;-82
2021/06/15 10:24:08;;;;;;;;;;;;;;;24.11;41.69;97172.98;1703862;84;20400;-80
2021/06/15 10:26:36;;;;;;;;;;;;;;;24.10;42.33;97163.24;1704232;82;20112;-81
2021/06/15 10:29:11;;;;;;;;;;;;;;;24.20;42.40;97166.88;1709058;82;20113;-80
2021/06/15 10:31:39;;;;;;;;;;;;;;;24.27;42.28;97160.95;1704471;82;20155;-81
2021/06/15 10:34:05;;;;;;;;;;;;;;;24.39;41.99;97159.28;1706115;82;20115;-80
2021/06/15 10:36:44;;;;;;;;;;;;;;;24.36;42.14;97159.70;1705350;82;20166;-81
2021/06/15 10:39:21;;;;;;;;;;;;;;;24.29;42.45;97163.74;1700444;83;20138;-78
2021/06/15 10:41:51;;;;;;;;;;;;;;;24.23;42.94;97155.16;1680014;82;20134;-81
2021/06/15 10:44:19;;;;;;;;;;;;;;;24.43;42.89;97148.39;1700315;82;20155;-79
2021/06/15 10:46:46;;;;;;;;;;;;;;;24.62;42.92;97149.89;1702503;84;20441;-80
2021/06/15 10:49:16;;;;;;;;;;;;;;;24.86;42.52;97151.62;1715096;82;20111;-80
2021/06/15 10:51:51;;;;;;;;;;;;;;;25.09;42.38;97149.75;1725368;82;20150;-81
2021/06/15 10:54:29;;;;;;;;;;;;;;;25.30;41.91;97142.36;1702593;82;20113;-80
2021/06/15 10:57:22;;;;;;;;;;;;;;;25.45;41.64;97146.14;1705542;82;20185;-79
2021/06/15 11:00:00;;;;;;;;;;;;;;;25.52;42.15;97143.72;1705235;82;20195;-79
2021/06/15 11:02:30;;;;;;;;;;;;;;;25.60;41.59;97145.33;1705649;82;20117;-79
2021/06/15 11:05:16;;;;;;;;;;;;;;;25.61;40.92;97141.59;1712746;82;20412;-80
2021/06/15 11:07:42;;;;;;;;;;;;;;;25.48;41.51;97138.44;1719250;81;20199;-80
2021/06/15 11:10:09;;;;;;;;;;;;;;;25.33;41.15;97133.34;1705333;83;20093;-80
2021/06/15 11:12:47;;;;;;;;;;;;;;;25.18;41.04;97131.44;1696954;85;20109;-81
2021/06/15 11:15:17;;;;;;;;;;;;;;;25.16;41.04;97126.77;1697428;85;20153;-80
2021/06/15 11:17:51;;;;;;;;;;;;;;;25.02;41.17;97121.97;1719864;83;20416;-79
2021/06/15 11:20:34;;;;;;;;;;;;;;;24.96;41.14;97127.73;1719478;83;20115;-80
2021/06/15 11:23:19;;;;;;;;;;;;;;;25.00;40.85;97117.34;1709741;83;20160;-79
2021/06/15 11:25:52;;;;;;;;;;;;;;;25.01;41.64;97117.66;1678670;83;20149;-81
2021/06/15 11:28:42;;;;;;;;;;;;;;;25.07;41.04;97112.20;1685831;83;20411;-80
2021/06/15 11:31:21;;;;;;;;;;;;;;;25.09;41.41;97107.42;1728795;83;20473;-81
2021/06/15 11:34:02;;;;;;;;;;;;;;;25.11;41.57;97107.20;1697755;82;20126;-80
2021/06/15 11:36:47;;;;;;;;;;;;;;;24.98;41.82;97096.50;1705328;83;20117;-80
2021/06/15 11:39:28;;;;;;;;;;;;;;;24.83;42.28;97096.25;1695062;84;20109;-80
2021/06/15 11:42:20;;;;;;;;;;;;;;;24.76;42.55;97099.00;1713438;83;20148;-81
2021/06/15 11:44:56;;;;;;;;;;;;;;;24.69;42.83;97094.67;1728009;83;20131;-87
2021/06/15 11:47:29;;;;;;;;;;;;;;;24.76;42.66;97093.61;1730409;83;20465;-83
2021/06/15 11:50:08;;;;;;;;;;;;;;;24.88;42.35;97091.06;1726132;82;20460;-83
2021/06/15 11:52:36;;;;;;;;;;;;;;;24.93;41.51;97084.48;1714346;83;20109;-81
2021/06/15 11:55:04;;;;;;;;;;;;;;;25.00;41.42;97082.30;1710167;83;20124;-82
2021/06/15 11:57:30;;;;;;;;;;;;;;;25.05;41.47;97083.30;1731263;83;20196;-82
2021/06/15 11:59:56;;;;;;;;;;;;;;;24.98;41.75;97074.94;1727808;83;20177;-82
2021/06/15 12:02:22;;;;;;;;;;;;;;;24.85;41.84;97079.88;1723845;83;20109;-83
2021/06/15 12:05:13;;;;;;;;;;;;;;;24.81;42.09;97079.48;1729296;82;20160;-81
2021/06/15 12:07:42;;;;;;;;;;;;;;;24.73;42.08;97068.95;1698128;83;20408;-79
2021/06/15 12:10:13;;;;;;;;;;;;;;;24.64;42.63;97069.14;1728858;83;20384;-81
2021/06/15 12:13:04;;;;;;;;;;;;;;;24.44;42.37;97066.54;1721537;83;20387;-83
2021/06/15 12:15:52;;;;;;;;;;;;;;;24.29;42.80;97052.52;1705345;83;20152;-81
2021/06/15 12:18:26;;;;;;;;;;;;;;;24.21;42.94;97050.06;1719214;83;20183;-80
2021/06/15 12:20:55;;;;;;;;;;;;;;;24.22;42.81;97060.61;1719984;83;20112;-81
2021/06/15 12:23:29;;;;;;;;;;;;;;;24.31;42.64;97055.83;1700510;83;20141;-83
2021/06/15 12:26:05;;;;;;;;;;;;;;;24.50;42.77;97057.31;1718972;83;20089;-81
2021/06/15 12:28:31;;;;;;;;;;;;;;;24.73;42.48;97052.25;1702227;83;20127;-83
2021/06/15 12:31:04;;;;;;;;;;;;;;;24.87;41.87;97048.97;1697354;85;20147;-81
2021/06/15 12:33:30;;;;;;;;;;;;;;;24.95;41.77;97050.59;1697274;84;20123;-83
2021/06/15 12:36:02;;;;;;;;;;;;;;;25.02;41.85;97043.79;1697446;85;20159;-85
2021/06/15 12:38:29;;;;;;;;;;;;;;;25.10;41.64;97049.77;1696773;85;20139;-83
2021/06/15 12:40:59;;;;;;;;;;;;;;;25.20;42.07;97031.73;1697356;83;20160;-83
2021/06/15 12:43:35;;;;;;;;;;;;;;;25.22;41.70;97036.40;1677707;85;20191;-85
2021/06/15 12:46:14;;;;;;;;;;;;;;;25.20;41.89;97026.88;1695856;84;20148;-84
2021/06/15 12:48:52;;;;;;;;;;;;;;;25.06;42.04;97026.96;1697450;85;20128;-85
2021/06/15 12:51:20;;;;;;;;;;;;;;;25.05;42.23;97025.34;1697663;85;20197;-83
2021/06/15 12:53:51;;;;;;;;;;;;;;;25.07;42.22;97015.14;1697404;85;20163;-83
2021/06/15 12:56:28;;;;;;;;;;;;;;;25.07;42.44;97007.58;1697285;83;20164;-80
2021/06/15 12:58:56;;;;;;;;;;;;;;;25.04;42.18;97003.46;1717669;82;20114;-81
2021/06/15 13:01:35;;;;;;;;;;;;;;;25.04;42.09;97007.50;1686515;85;20143;-81
2021/06/15 13:04:19;;;;;;;;;;;;;;;25.02;42.21;97003.35;1675885;85;20109;-82
2021/06/15 13:06:47;;;;;;;;;;;;;;;24.95;41.85;96995.33;1697839;83;20445;-82